Time;durP1;ratioP1;P1;durP2;ratioP2;P2;SDS_P1;SDS_P2;PMS_P1;PMS_P2;Temp;Humidity;BMP_temperature;BMP_pressure;BME280_temperature;BME280_humidity;BME280_pressure;Samples;Min_cycle;Max_cycle;Signal;HPM_P1;HPM_P2
2023/04/01 00:01:50;;;;;;;6.13;2.07;;;;;;;9.32;100.00;98362.31;5036843;28;20237;-60
2023/04/01 00:04:16;;;;;;;5.07;2.07;;;;;;;9.36;100.00;98363.72;5034585;28;20190;-60
2023/04/01 00:06:41;;;;;;;7.33;2.30;;;;;;;9.29;100.00;98354.88;5031409;28;20679;-63
2023/04/01 00:09:07;;;;;;;5.80;1.63;;;;;;;9.32;100.00;98361.50;5032697;28;20242;-62
2023/04/01 00:11:32;;;;;;;6.23;1.90;;;;;;;9.32;100.00;98354.59;5034371;28;20667;-62
2023/04/01 00:13:57;;;;;;;5.33;2.40;;;;;;;9.36;100.00;98363.72;5027265;28;20263;-61
2023/04/01 00:16:23;;;;;;;5.47;2.00;;;;;;;9.40;100.00;98355.78;5032891;28;20178;-65
2023/04/01 00:18:50;;;;;;;4.93;2.30;;;;;;;9.37;100.00;98361.97;5032841;28;20222;-60
2023/04/01 00:21:16;;;;;;;4.00;1.60;;;;;;;9.40;100.00;98361.72;5024289;28;20225;-61
2023/04/01 00:23:41;;;;;;;6.23;1.70;;;;;;;9.33;100.00;98358.81;5047677;28;20555;-62
2023/04/01 00:26:07;;;;;;;4.23;1.90;;;;;;;9.30;100.00;98353.09;5032491;28;20185;-62
2023/04/01 00:28:34;;;;;;;4.27;1.27;;;;;;;9.31;100.00;98349.59;5032560;28;20637;-60
2023/04/01 00:31:04;;;;;;;4.03;1.73;;;;;;;9.30;100.00;98356.50;5024432;28;20231;-60
2023/04/01 00:33:30;;;;;;;4.53;1.77;;;;;;;9.33;100.00;98350.31;5022358;28;20178;-60
2023/04/01 00:35:56;;;;;;;7.33;1.97;;;;;;;9.35;100.00;98356.13;5031529;28;20174;-60
2023/04/01 00:38:21;;;;;;;6.90;1.80;;;;;;;9.37;100.00;98349.94;5031396;28;20941;-64
2023/04/01 00:40:47;;;;;;;7.03;1.90;;;;;;;9.32;100.00;98346.91;5027781;28;20373;-61
2023/04/01 00:43:19;;;;;;;6.00;1.83;;;;;;;9.26;100.00;98347.38;5030764;28;20197;-61
2023/04/01 00:45:46;;;;;;;5.20;1.93;;;;;;;9.28;100.00;98352.41;5032226;28;20257;-60
2023/04/01 00:48:16;;;;;;;5.90;1.93;;;;;;;9.19;100.00;98349.63;5047423;28;20197;-60
2023/04/01 00:50:50;;;;;;;3.97;1.60;;;;;;;9.28;100.00;98357.53;5023583;28;20233;-63
2023/04/01 00:53:19;;;;;;;5.80;1.80;;;;;;;9.28;100.00;98350.66;5030283;28;20174;-61
2023/04/01 00:55:51;;;;;;;3.47;1.67;;;;;;;9.22;100.00;98350.31;5030816;28;20648;-60
2023/04/01 00:58:20;;;;;;;7.97;1.70;;;;;;;9.21;100.00;98346.94;5031428;28;20224;-60
2023/04/01 01:00:49;;;;;;;5.17;1.70;;;;;;;9.21;100.00;98341.78;5024519;28;20711;-60
2023/04/01 01:03:14;;;;;;;3.87;1.83;;;;;;;9.13;100.00;98349.25;5041720;28;20642;-60
2023/04/01 01:06:05;;;;;;;4.47;1.73;;;;;;;9.10;100.00;98346.94;5047807;28;20250;-61
2023/04/01 01:09:07;;;;;;;4.10;1.90;;;;;;;9.07;100.00;98342.03;5030900;28;20193;-60
2023/04/01 01:11:41;;;;;;;8.37;2.20;;;;;;;9.16;100.00;98342.16;5034257;28;20266;-61
2023/04/01 01:14:34;;;;;;;4.10;2.20;;;;;;;9.06;100.00;98350.69;5034865;28;20202;-63
2023/04/01 01:17:41;;;;;;;3.17;1.70;;;;;;;9.04;100.00;98338.78;5047758;28;20623;-60
2023/04/01 01:20:34;;;;;;;3.80;1.50;;;;;;;8.99;100.00;98345.19;5022053;28;20735;-62
2023/04/01 01:23:30;;;;;;;3.47;1.70;;;;;;;9.04;100.00;98336.22;5043549;28;20182;-61
2023/04/01 01:25:59;;;;;;;5.60;1.80;;;;;;;9.07;100.00;98340.31;5030152;28;20182;-60
2023/04/01 01:28:50;;;;;;;5.47;1.60;;;;;;;9.04;100.00;98341.34;5031170;28;20244;-61
2023/04/01 01:31:34;;;;;;;4.20;1.43;;;;;;;8.99;100.00;98346.03;5021028;28;20229;-61
2023/04/01 01:34:21;;;;;;;3.27;1.67;;;;;;;9.08;100.00;98344.50;5029867;28;20197;-60
2023/04/01 01:36:53;;;;;;;5.30;1.90;;;;;;;9.09;100.00;98340.19;5028736;28;20174;-61
2023/04/01 01:39:20;;;;;;;5.50;1.63;;;;;;;9.15;100.00;98345.66;5046856;28;20230;-60
2023/04/01 01:41:49;;;;;;;4.67;1.80;;;;;;;9.18;100.00;98342.06;5039775;28;20299;-60
2023/04/01 01:44:16;;;;;;;4.00;1.50;;;;;;;9.25;100.00;98334.69;5029691;28;20272;-59
2023/04/01 01:46:43;;;;;;;4.33;1.53;;;;;;;9.26;100.00;98332.00;5046236;28;20178;-60
2023/04/01 01:49:12;;;;;;;5.80;1.77;;;;;;;9.21;100.00;98334.09;5029798;28;20284;-60
2023/04/01 01:51:37;;;;;;;3.23;1.30;;;;;;;9.22;100.00;98340.06;5023337;28;20248;-60
2023/04/01 01:54:02;;;;;;;6.17;1.97;;;;;;;9.29;100.00;98338.63;5034243;28;20222;-61
2023/04/01 01:56:29;;;;;;;4.13;1.53;;;;;;;9.36;100.00;98337.22;5031145;28;20220;-61
2023/04/01 01:59:03;;;;;;;3.97;1.83;;;;;;;9.23;100.00;98334.81;5029973;28;20201;-60
2023/04/01 02:01:31;;;;;;;4.87;1.80;;;;;;;9.19;100.00;98323.13;5023073;28;20334;-60
2023/04/01 02:03:58;;;;;;;4.37;1.47;;;;;;;9.19;100.00;98335.97;5045907;28;20178;-60
2023/04/01 02:06:26;;;;;;;4.03;1.43;;;;;;;9.13;100.00;98331.31;5029952;28;20244;-61
2023/04/01 02:08:56;;;;;;;2.93;1.33;;;;;;;9.05;100.00;98334.47;5037406;28;20230;-60
2023/04/01 02:11:30;;;;;;;5.43;1.93;;;;;;;9.05;100.00;98331.91;5023111;28;20373;-62
2023/04/01 02:14:04;;;;;;;4.47;1.80;;;;;;;9.11;100.00;98333.19;5029315;28;20201;-60
2023/04/01 02:16:43;;;;;;;3.50;1.60;;;;;;;8.99;100.00;98333.19;5045895;28;20228;-60
2023/04/01 02:19:11;;;;;;;2.87;1.47;;;;;;;9.01;100.00;98348.47;5030086;28;20186;-61
2023/04/01 02:21:38;;;;;;;4.47;1.53;;;;;;;8.98;100.00;98336.69;5022766;28;20225;-60
2023/04/01 02:24:07;;;;;;;3.70;1.77;;;;;;;9.03;100.00;98344.03;5029315;28;20193;-60
2023/04/01 02:26:34;;;;;;;3.30;1.30;;;;;;;8.99;100.00;98340.91;5029437;28;20193;-60
2023/04/01 02:29:01;;;;;;;4.63;1.53;;;;;;;8.96;100.00;98340.31;5029584;28;20209;-60
2023/04/01 02:31:27;;;;;;;3.13;1.43;;;;;;;8.96;100.00;98343.69;5023014;28;20224;-60
2023/04/01 02:33:54;;;;;;;4.90;1.70;;;;;;;8.96;100.00;98342.88;5045636;28;20190;-62
2023/04/01 02:36:19;;;;;;;2.80;1.40;;;;;;;8.94;100.00;98344.72;5032528;28;20182;-61
2023/04/01 02:38:46;;;;;;;3.90;1.87;;;;;;;8.91;100.00;98343.22;5030700;28;20562;-60
2023/04/01 02:41:12;;;;;;;3.17;1.50;;;;;;;8.92;100.00;98342.28;5022400;28;20367;-60
2023/04/01 02:43:37;;;;;;;3.07;1.30;;;;;;;8.88;100.00;98341.69;5037066;28;20680;-61
2023/04/01 02:46:03;;;;;;;3.10;1.40;;;;;;;8.85;100.00;98335.97;5030780;28;20556;-60
2023/04/01 02:48:29;;;;;;;5.70;1.87;;;;;;;8.89;100.00;98332.25;5030529;28;20226;-63
2023/04/01 02:50:54;;;;;;;5.67;1.47;;;;;;;8.93;100.00;98337.97;5039070;28;20527;-61
2023/04/01 02:53:19;;;;;;;6.93;1.57;;;;;;;8.93;100.00;98331.09;5038844;28;20182;-62
2023/04/01 02:55:45;;;;;;;2.90;1.67;;;;;;;8.86;100.00;98333.28;5031043;28;20186;-60
2023/04/01 02:58:10;;;;;;;5.83;1.60;;;;;;;8.88;100.00;98333.19;5030961;28;20174;-66
2023/04/01 03:00:36;;;;;;;4.57;1.50;;;;;;;8.97;100.00;98335.06;5021934;28;20643;-60
2023/04/01 03:03:02;;;;;;;5.13;1.43;;;;;;;8.94;100.00;98337.03;5057051;28;20230;-62
2023/04/01 03:05:27;;;;;;;6.87;2.10;;;;;;;8.95;100.00;98347.16;5034231;28;20268;-62
2023/04/01 03:07:52;;;;;;;4.73;1.53;;;;;;;9.02;100.00;98332.16;5049354;28;20293;-61
2023/04/01 03:10:18;;;;;;;5.60;1.57;;;;;;;9.02;100.00;98334.72;5025851;28;20696;-62
2023/04/01 03:12:43;;;;;;;4.37;1.60;;;;;;;8.97;100.00;98324.00;5032003;28;20182;-60
2023/04/01 03:15:11;;;;;;;9.57;2.20;;;;;;;9.11;100.00;98330.63;5024729;28;20625;-61
2023/04/01 03:17:36;;;;;;;5.00;1.40;;;;;;;9.08;100.00;98336.81;5032695;28;20236;-60
2023/04/01 03:20:04;;;;;;;5.60;2.13;;;;;;;9.04;100.00;98338.78;5032417;28;20186;-62
2023/04/01 03:22:30;;;;;;;3.40;1.57;;;;;;;9.06;100.00;98340.44;5031930;28;20674;-60
2023/04/01 03:24:55;;;;;;;3.60;1.50;;;;;;;9.01;100.00;98333.06;5033592;28;20265;-61
2023/04/01 03:27:20;;;;;;;5.30;1.67;;;;;;;9.15;100.00;98339.72;5033735;28;20661;-60
2023/04/01 03:29:46;;;;;;;5.13;1.93;;;;;;;9.04;100.00;98333.66;5033540;28;20193;-60
2023/04/01 03:32:11;;;;;;;2.70;1.43;;;;;;;9.03;100.00;98332.03;5035165;28;20260;-60
2023/04/01 03:34:36;;;;;;;4.33;1.53;;;;;;;9.02;100.00;98334.72;5033438;28;20381;-60
2023/04/01 03:37:01;;;;;;;3.20;1.60;;;;;;;9.01;100.00;98333.88;5033751;28;20550;-60
2023/04/01 03:39:27;;;;;;;4.67;1.93;;;;;;;9.07;100.00;98339.47;5033392;28;20236;-63
2023/04/01 03:41:52;;;;;;;4.77;1.87;;;;;;;9.04;100.00;98343.91;5037287;28;20232;-62
2023/04/01 03:44:17;;;;;;;5.77;1.63;;;;;;;9.15;100.00;98348.22;5034209;28;20675;-61
2023/04/01 03:46:42;;;;;;;5.50;1.90;;;;;;;9.08;100.00;98341.09;5033819;28;20182;-61
2023/04/01 03:49:11;;;;;;;8.00;2.00;;;;;;;9.09;100.00;98335.03;5033247;28;20214;-61
2023/04/01 03:51:40;;;;;;;4.57;1.93;;;;;;;9.12;100.00;98339.97;5035415;28;20228;-60
2023/04/01 03:54:06;;;;;;;5.40;1.50;;;;;;;9.14;100.00;98346.59;5035199;28;20256;-63
2023/04/01 03:56:32;;;;;;;5.67;2.37;;;;;;;9.22;100.00;98338.31;5032346;28;20205;-60
2023/04/01 03:58:57;;;;;;;5.00;1.80;;;;;;;9.11;100.00;98348.56;5031562;28;20177;-60
2023/04/01 04:01:23;;;;;;;4.30;1.40;;;;;;;9.11;100.00;98346.00;5033441;28;20582;-60
2023/04/01 04:03:49;;;;;;;4.13;1.67;;;;;;;9.32;100.00;98341.78;5037772;28;20204;-61
2023/04/01 04:06:16;;;;;;;3.80;1.40;;;;;;;9.22;100.00;98340.88;5031894;28;20189;-60
2023/04/01 04:08:42;;;;;;;5.00;1.63;;;;;;;9.35;100.00;98340.72;5031186;28;20261;-62
2023/04/01 04:11:07;;;;;;;4.23;1.63;;;;;;;9.35;100.00;98351.00;5031302;28;20268;-61
2023/04/01 04:13:33;;;;;;;3.67;1.40;;;;;;;9.39;100.00;98344.72;5039374;28;20205;-60
2023/04/01 04:15:58;;;;;;;4.13;1.60;;;;;;;9.33;100.00;98342.63;5032488;28;20541;-60
2023/04/01 04:18:23;;;;;;;2.50;1.23;;;;;;;9.24;100.00;98336.44;5032499;28;20205;-60
2023/04/01 04:20:50;;;;;;;7.47;1.73;;;;;;;9.23;100.00;98344.25;5028849;28;20229;-60
2023/04/01 04:23:17;;;;;;;3.27;1.80;;;;;;;9.20;100.00;98341.00;5030852;28;20319;-60
2023/04/01 04:26:00;;;;;;;3.27;1.37;;;;;;;9.17;100.00;98337.84;5031494;28;20181;-61
2023/04/01 04:28:27;;;;;;;5.53;2.13;;;;;;;9.17;100.00;98342.97;5031029;28;20193;-61
2023/04/01 04:30:53;;;;;;;5.37;2.47;;;;;;;9.18;100.00;98335.16;5024528;28;20246;-62
2023/04/01 04:33:19;;;;;;;5.53;1.73;;;;;;;9.08;100.00;98341.09;5030806;28;20178;-61
2023/04/01 04:35:44;;;;;;;4.83;1.60;;;;;;;9.06;100.00;98337.84;5047631;28;20244;-60
2023/04/01 04:38:10;;;;;;;6.97;1.90;;;;;;;9.06;100.00;98340.44;5032511;28;20504;-60
2023/04/01 04:40:37;;;;;;;4.37;1.57;;;;;;;9.01;100.00;98338.19;5026411;28;20248;-60
2023/04/01 04:43:02;;;;;;;3.43;1.60;;;;;;;9.04;100.00;98338.78;5030750;28;20178;-62
2023/04/01 04:45:28;;;;;;;2.13;1.23;;;;;;;8.99;100.00;98338.31;5032371;28;20240;-61
2023/04/01 04:47:53;;;;;;;3.17;1.53;;;;;;;8.97;100.00;98332.50;5032308;28;20198;-61
2023/04/01 04:50:18;;;;;;;3.43;1.83;;;;;;;8.92;100.00;98337.16;5024118;28;20241;-61
2023/04/01 04:52:44;;;;;;;12.67;2.27;;;;;;;8.88;100.00;98333.19;5030077;28;20200;-61
2023/04/01 04:55:09;;;;;;;7.33;2.00;;;;;;;8.89;100.00;98334.81;5032250;28;20194;-60
2023/04/01 04:57:34;;;;;;;5.63;1.90;;;;;;;8.87;100.00;98337.50;5032411;28;20185;-60
2023/04/01 04:59:59;;;;;;;3.57;1.60;;;;;;;8.84;100.00;98330.06;5032030;28;20232;-60
2023/04/01 05:02:25;;;;;;;2.97;1.40;;;;;;;8.87;100.00;98339.25;5036684;28;20218;-60
2023/04/01 05:04:50;;;;;;;4.37;1.50;;;;;;;8.89;100.00;98342.50;5031973;28;20548;-64
2023/04/01 05:07:15;;;;;;;3.47;1.50;;;;;;;8.91;100.00;98347.53;5031788;28;20205;-60
2023/04/01 05:09:40;;;;;;;3.20;1.17;;;;;;;8.86;100.00;98347.88;5031848;28;20579;-61
2023/04/01 05:12:06;;;;;;;3.87;1.43;;;;;;;8.93;100.00;98333.66;5036766;28;20217;-60
2023/04/01 05:14:31;;;;;;;4.20;1.40;;;;;;;8.93;100.00;98343.91;5031895;28;20214;-65
2023/04/01 05:16:56;;;;;;;5.27;1.60;;;;;;;8.97;100.00;98339.38;5018856;28;20185;-60
2023/04/01 05:19:21;;;;;;;3.33;1.33;;;;;;;8.99;100.00;98340.06;5031816;28;20208;-64
2023/04/01 05:21:47;;;;;;;3.83;1.40;;;;;;;8.96;100.00;98337.75;5034583;28;20569;-62
2023/04/01 05:24:12;;;;;;;2.67;1.30;;;;;;;9.13;100.00;98329.56;5033358;28;20191;-69
2023/04/01 05:26:37;;;;;;;2.83;1.40;;;;;;;9.10;100.00;98329.78;5031522;28;20185;-60
2023/04/01 05:29:04;;;;;;;2.60;1.07;;;;;;;8.99;100.00;98337.50;5031797;28;20735;-61
2023/04/01 05:31:29;;;;;;;4.03;1.53;;;;;;;9.00;100.00;98339.94;5023203;28;20224;-60
2023/04/01 05:33:55;;;;;;;4.83;1.40;;;;;;;9.07;100.00;98336.91;5035550;28;20177;-61
2023/04/01 05:36:21;;;;;;;2.93;1.10;;;;;;;9.07;100.00;98329.22;5031227;28;20672;-75
2023/04/01 05:38:47;;;;;;;4.73;1.30;;;;;;;9.10;100.00;98326.41;5030451;28;20186;-61
2023/04/01 05:41:12;;;;;;;8.27;1.83;;;;;;;9.08;100.00;98334.25;5030170;28;20774;-61
2023/04/01 05:43:39;;;;;;;1.40;0.97;;;;;;;9.02;100.00;98329.59;5029904;28;20186;-60
2023/04/01 05:46:04;;;;;;;1.83;1.23;;;;;;;9.14;100.00;98327.81;5029171;28;20239;-60
2023/04/01 05:48:29;;;;;;;2.40;1.00;;;;;;;9.22;100.00;98327.25;5030763;28;20202;-60
2023/04/01 05:50:55;;;;;;;3.00;1.30;;;;;;;9.19;100.00;98325.69;5027413;28;20272;-60
2023/04/01 05:53:20;;;;;;;3.07;1.00;;;;;;;9.18;100.00;98326.66;5039141;28;20243;-60
2023/04/01 05:55:45;;;;;;;3.57;1.30;;;;;;;9.19;100.00;98329.09;5030983;28;20178;-61
2023/04/01 05:58:11;;;;;;;2.00;1.10;;;;;;;9.24;100.00;98331.31;5031102;28;20192;-64
2023/04/01 06:00:36;;;;;;;4.87;1.20;;;;;;;9.25;100.00;98321.84;5024879;28;20221;-60
2023/04/01 06:03:01;;;;;;;3.23;1.40;;;;;;;9.26;100.00;98329.44;5041405;28;20667;-60
2023/04/01 06:05:29;;;;;;;2.70;1.00;;;;;;;9.26;100.00;98326.06;5030594;28;20215;-60
2023/04/01 06:08:05;;;;;;;1.87;1.13;;;;;;;9.24;100.00;98313.34;5029429;28;20196;-61
2023/04/01 06:11:13;;;;;;;2.73;1.00;;;;;;;9.21;100.00;98318.72;5024014;28;20248;-66
2023/04/01 06:14:23;;;;;;;3.23;1.00;;;;;;;9.26;100.00;98316.59;5020649;28;20225;-62
2023/04/01 06:17:16;;;;;;;1.53;0.83;;;;;;;9.40;100.00;98323.22;5025558;28;20217;-60
2023/04/01 06:19:54;;;;;;;1.40;0.90;;;;;;;9.33;100.00;98322.88;5028700;28;20240;-59
2023/04/01 06:22:46;;;;;;;1.03;0.80;;;;;;;9.44;100.00;98314.34;5036112;28;20229;-59
2023/04/01 06:25:29;;;;;;;2.83;1.03;;;;;;;9.30;100.00;98318.00;5026840;28;20232;-59
2023/04/01 06:28:18;;;;;;;1.97;1.20;;;;;;;9.27;100.00;98336.19;5029128;28;20665;-60
2023/04/01 06:31:20;;;;;;;1.17;0.67;;;;;;;9.36;100.00;98329.53;5025203;28;20237;-61
2023/04/01 06:34:13;;;;;;;1.93;1.07;;;;;;;9.40;100.00;98327.53;5035519;28;20217;-60
2023/04/01 06:36:57;;;;;;;2.60;1.30;;;;;;;9.44;100.00;98326.34;5029436;28;20229;-64
2023/04/01 06:39:46;;;;;;;2.17;1.30;;;;;;;9.44;100.00;98329.75;5047685;28;20216;-61
2023/04/01 06:43:06;;;;;;;1.60;1.10;;;;;;;9.48;100.00;98326.00;5037481;28;20236;-63
2023/04/01 06:45:41;;;;;;;2.07;0.87;;;;;;;9.43;100.00;98319.63;4953702;29;20197;-61
2023/04/01 06:48:32;;;;;;;1.70;0.83;;;;;;;9.45;100.00;98323.69;4952877;28;20204;-61
2023/04/01 06:51:35;;;;;;;1.10;0.60;;;;;;;9.38;100.00;98325.09;4943757;28;20235;-63
2023/04/01 06:54:10;;;;;;;2.83;1.03;;;;;;;9.43;100.00;98325.56;4953120;29;20652;-59
2023/04/01 06:56:40;;;;;;;0.80;0.80;;;;;;;9.60;100.00;98325.97;4953349;28;20239;-60
2023/04/01 06:59:12;;;;;;;2.50;1.03;;;;;;;9.64;100.00;98327.38;4953395;29;20189;-60
2023/04/01 07:01:42;;;;;;;1.60;0.80;;;;;;;9.87;100.00;98322.97;4930891;28;20335;-64
2023/04/01 07:04:20;;;;;;;2.97;0.87;;;;;;;9.87;100.00;98325.53;4936530;29;20240;-62
2023/04/01 07:07:08;;;;;;;2.20;0.70;;;;;;;10.00;100.00;98321.03;4936760;29;20192;-60
2023/04/01 07:09:41;;;;;;;0.83;0.70;;;;;;;10.22;100.00;98321.06;4937440;29;20229;-61
2023/04/01 07:12:30;;;;;;;1.37;0.97;;;;;;;10.30;100.00;98309.22;4943587;28;20571;-59
2023/04/01 07:14:58;;;;;;;1.07;0.70;;;;;;;10.37;100.00;98312.13;4953539;29;20295;-60
2023/04/01 07:17:31;;;;;;;1.77;0.90;;;;;;;10.32;100.00;98312.47;5037116;28;20228;-59
2023/04/01 07:20:16;;;;;;;0.70;0.60;;;;;;;10.27;100.00;98308.66;5049053;28;20231;-59
2023/04/01 07:22:45;;;;;;;1.97;0.67;;;;;;;10.29;100.00;98317.84;5021259;28;20580;-59
2023/04/01 07:25:16;;;;;;;1.80;0.70;;;;;;;10.25;100.00;98308.78;5067865;28;20181;-59
2023/04/01 07:27:42;;;;;;;2.13;0.80;;;;;;;10.29;100.00;98317.06;5050706;28;20335;-59
2023/04/01 07:30:15;;;;;;;2.17;0.70;;;;;;;10.56;100.00;98311.41;5023070;28;20181;-60
2023/04/01 07:32:47;;;;;;;1.00;0.90;;;;;;;10.76;100.00;98317.47;5075802;28;20190;-59
2023/04/01 07:35:16;;;;;;;1.07;0.50;;;;;;;10.84;100.00;98331.44;5032441;28;20217;-60
2023/04/01 07:37:58;;;;;;;1.70;0.83;;;;;;;11.11;100.00;98328.28;5033892;28;20545;-59
2023/04/01 07:40:45;;;;;;;2.63;1.30;;;;;;;11.37;100.00;98335.53;5026615;28;20214;-60
2023/04/01 07:43:18;;;;;;;1.87;1.33;;;;;;;11.60;100.00;98334.38;5031818;28;20186;-59
2023/04/01 07:46:09;;;;;;;1.63;0.90;;;;;;;12.06;100.00;98329.53;5031865;28;20251;-60
2023/04/01 07:49:09;;;;;;;1.73;0.80;;;;;;;12.06;100.00;98342.41;5032434;28;20233;-61
2023/04/01 07:51:54;;;;;;;4.20;0.90;;;;;;;11.91;100.00;98343.75;5039116;28;20303;-62
2023/04/01 07:55:12;;;;;;;0.83;0.50;;;;;;;11.71;100.00;98350.63;5031964;28;20182;-60
2023/04/01 07:57:52;;;;;;;1.10;0.80;;;;;;;11.57;100.00;98355.25;5012053;28;20260;-60
2023/04/01 08:00:45;;;;;;;0.90;0.60;;;;;;;11.47;100.00;98344.09;5023452;28;20186;-61
2023/04/01 08:03:29;;;;;;;1.77;0.80;;;;;;;11.43;100.00;98359.00;5042724;28;20182;-59
2023/04/01 08:06:04;;;;;;;1.80;0.50;;;;;;;11.63;100.00;98359.03;5021568;28;20178;-59
2023/04/01 08:08:35;;;;;;;0.97;0.53;;;;;;;11.60;100.00;98357.53;5032340;28;20185;-59
2023/04/01 08:11:19;;;;;;;0.93;0.83;;;;;;;11.45;100.00;98354.53;5041204;28;20247;-60
2023/04/01 08:14:10;;;;;;;1.27;0.60;;;;;;;11.26;100.00;98360.47;5047756;28;20281;-60
2023/04/01 08:16:51;;;;;;;0.43;0.43;;;;;;;11.36;100.00;98357.09;5033020;28;20182;-61
2023/04/01 08:19:40;;;;;;;1.50;0.70;;;;;;;11.14;100.00;98364.88;5048453;28;20337;-60
2023/04/01 08:22:19;;;;;;;0.60;0.60;;;;;;;11.13;100.00;98370.97;5040493;28;20229;-60
2023/04/01 08:24:47;;;;;;;1.20;0.53;;;;;;;10.82;100.00;98373.53;5020294;28;20178;-60
2023/04/01 08:27:22;;;;;;;1.30;0.73;;;;;;;10.95;100.00;98373.34;5047712;28;20186;-62
2023/04/01 08:29:55;;;;;;;1.33;0.63;;;;;;;11.25;100.00;98379.41;5048044;28;20220;-61
2023/04/01 08:32:29;;;;;;;1.20;0.60;;;;;;;11.21;100.00;98374.66;5038041;28;20749;-74
2023/04/01 08:35:15;;;;;;;2.10;0.73;;;;;;;11.04;100.00;98374.31;5035371;28;20175;-61
2023/04/01 08:37:43;;;;;;;1.10;0.60;;;;;;;10.98;100.00;98382.56;5032306;28;20165;-61
2023/04/01 08:40:20;;;;;;;1.50;0.77;;;;;;;11.23;100.00;98372.78;5022003;28;20182;-60
2023/04/01 08:42:51;;;;;;;0.60;0.60;;;;;;;11.43;100.00;98382.16;5044779;28;20185;-60
2023/04/01 08:45:44;;;;;;;1.53;0.50;;;;;;;11.42;100.00;98379.72;5032594;28;20174;-61
2023/04/01 08:48:54;;;;;;;0.70;0.70;;;;;;;11.15;100.00;98376.00;5021255;28;20220;-61
2023/04/01 08:51:33;;;;;;;2.30;0.50;;;;;;;11.29;100.00;98377.41;5033992;28;20225;-61
2023/04/01 08:54:40;;;;;;;0.90;0.60;;;;;;;11.28;100.00;98380.91;5037877;28;20181;-62
2023/04/01 08:57:19;;;;;;;1.67;1.00;;;;;;;11.28;100.00;98386.84;4969141;28;20271;-60
2023/04/01 09:00:05;;;;;;;1.33;0.63;;;;;;;11.07;100.00;98380.97;4970332;28;20191;-61
2023/04/01 09:02:49;;;;;;;0.47;0.47;;;;;;;10.79;100.00;98390.97;4921577;29;20237;-61
2023/04/01 09:05:36;;;;;;;1.10;0.67;;;;;;;10.84;100.00;98394.00;4932548;29;20190;-60
2023/04/01 09:08:19;;;;;;;0.70;0.70;;;;;;;10.86;100.00;98397.25;4916338;29;20216;-60
2023/04/01 09:10:53;;;;;;;0.80;0.80;;;;;;;11.07;100.00;98393.84;4914610;28;20244;-61
2023/04/01 09:13:56;;;;;;;0.97;0.57;;;;;;;10.93;100.00;98402.72;4948088;29;20708;-60
2023/04/01 09:16:46;;;;;;;2.20;0.80;;;;;;;10.92;100.00;98398.50;4951119;29;20189;-64
2023/04/01 09:19:46;;;;;;;0.60;0.60;;;;;;;11.11;100.00;98402.91;4951178;29;20594;-59
2023/04/01 09:22:27;;;;;;;0.63;0.63;;;;;;;11.28;100.00;98407.44;4909405;29;20225;-59
2023/04/01 09:24:59;;;;;;;0.93;0.60;;;;;;;11.16;100.00;98408.47;4932063;29;20272;-60
2023/04/01 09:27:57;;;;;;;1.67;0.80;;;;;;;11.04;100.00;98410.34;4957475;28;20194;-59
2023/04/01 09:30:32;;;;;;;3.10;0.80;;;;;;;11.02;100.00;98411.41;5005142;28;20208;-60
2023/04/01 09:33:29;;;;;;;1.60;0.70;;;;;;;11.10;100.00;98412.41;5042784;28;20189;-61
2023/04/01 09:36:26;;;;;;;2.17;0.93;;;;;;;11.22;100.00;98417.47;5030021;28;20174;-60
2023/04/01 09:39:10;;;;;;;2.10;0.80;;;;;;;11.27;100.00;98420.47;5031146;28;20553;-59
2023/04/01 09:41:47;;;;;;;1.27;0.60;;;;;;;11.37;100.00;98425.66;5022976;28;20225;-60
2023/04/01 09:44:19;;;;;;;3.53;0.80;;;;;;;11.44;100.00;98419.03;5032744;28;20265;-60
2023/04/01 09:47:02;;;;;;;1.27;0.97;;;;;;;11.76;100.00;98424.00;5029839;28;20229;-61
2023/04/01 09:49:30;;;;;;;0.80;0.63;;;;;;;12.02;100.00;98426.13;5019147;28;20240;-61
2023/04/01 09:52:29;;;;;;;3.03;0.80;;;;;;;12.33;100.00;98420.84;5035104;28;20271;-62
2023/04/01 09:55:31;;;;;;;0.70;0.60;;;;;;;12.52;100.00;98425.16;5031539;28;20174;-61
2023/04/01 09:58:24;;;;;;;1.57;1.20;;;;;;;12.68;100.00;98429.75;5022074;28;20177;-60
2023/04/01 10:00:55;;;;;;;1.33;0.90;;;;;;;12.58;100.00;98424.59;5027256;28;20707;-61
2023/04/01 10:03:39;;;;;;;0.90;0.80;;;;;;;12.55;100.00;98429.22;5039363;28;20273;-60
2023/04/01 10:06:10;;;;;;;0.90;0.90;;;;;;;12.39;100.00;98438.34;5031209;28;20250;-61
2023/04/01 10:09:03;;;;;;;0.40;0.40;;;;;;;12.23;100.00;98435.47;5032027;28;20196;-60
2023/04/01 10:12:08;;;;;;;1.30;0.80;;;;;;;12.25;100.00;98449.03;5036016;28;20250;-60
2023/04/01 10:15:00;;;;;;;0.77;0.43;;;;;;;12.02;100.00;98446.72;5050182;28;20559;-60
2023/04/01 10:17:56;;;;;;;0.30;0.30;;;;;;;11.65;100.00;98441.31;5034957;28;20197;-61
2023/04/01 10:20:39;;;;;;;0.40;0.40;;;;;;;11.54;100.00;98455.13;5016002;28;20245;-60
2023/04/01 10:23:31;;;;;;;0.67;0.60;;;;;;;11.54;100.00;98450.78;5033193;28;20532;-59
2023/04/01 10:26:35;;;;;;;0.40;0.40;;;;;;;11.63;100.00;98454.31;5033337;28;20277;-60
2023/04/01 10:29:19;;;;;;;1.17;0.70;;;;;;;11.42;100.00;98447.50;5034779;28;20213;-60
2023/04/01 10:32:00;;;;;;;1.00;0.50;;;;;;;11.62;100.00;98447.53;5037986;28;20213;-60
2023/04/01 10:35:03;;;;;;;0.30;0.30;;;;;;;11.97;100.00;98446.31;5033009;28;20196;-60
2023/04/01 10:37:46;;;;;;;0.40;0.40;;;;;;;12.15;100.00;98446.47;5034560;28;20235;-61
2023/04/01 10:40:35;;;;;;;0.70;0.70;;;;;;;12.35;100.00;98447.28;5023698;28;20178;-60
2023/04/01 10:43:29;;;;;;;0.97;0.70;;;;;;;12.55;100.00;98444.69;5045039;28;20178;-60
2023/04/01 10:46:00;;;;;;;1.10;0.60;;;;;;;12.57;100.00;98447.97;5033225;28;20170;-57
2023/04/01 10:48:45;;;;;;;0.40;0.40;;;;;;;12.78;100.00;98442.63;5031964;28;20685;-60
2023/04/01 10:51:17;;;;;;;0.57;0.53;;;;;;;12.91;100.00;98444.91;5023438;28;20232;-62
2023/04/01 10:54:09;;;;;;;0.40;0.40;;;;;;;12.88;100.00;98435.69;5031259;28;20618;-63
2023/04/01 10:56:44;;;;;;;0.80;0.70;;;;;;;13.02;100.00;98433.63;5026943;28;20526;-62
2023/04/01 10:59:28;;;;;;;0.43;0.43;;;;;;;13.32;100.00;98435.16;5031399;28;20676;-63
2023/04/01 11:02:44;;;;;;;1.13;0.60;;;;;;;13.39;100.00;98428.47;5019719;28;20249;-74
2023/04/01 11:05:31;;;;;;;0.57;0.40;;;;;;;13.55;100.00;98435.59;5010333;28;20207;-62
2023/04/01 11:08:41;;;;;;;0.60;0.50;;;;;;;13.52;100.00;98437.66;4989901;28;20215;-63
2023/04/01 11:11:35;;;;;;;0.93;0.33;;;;;;;13.36;100.00;98428.75;4998561;28;20237;-61
2023/04/01 11:14:19;;;;;;;0.57;0.40;;;;;;;13.37;100.00;98432.13;4988247;28;20214;-61
2023/04/01 11:16:53;;;;;;;0.40;0.40;;;;;;;13.21;100.00;98443.09;4989819;28;20792;-61
2023/04/01 11:19:38;;;;;;;0.60;0.60;;;;;;;12.99;100.00;98436.50;5006499;28;20202;-61
2023/04/01 11:22:19;;;;;;;0.63;0.60;;;;;;;12.75;100.00;98445.47;4987953;28;20733;-61
2023/04/01 11:24:53;;;;;;;0.70;0.40;;;;;;;12.81;100.00;98444.13;5007348;28;20199;-60
2023/04/01 11:27:37;;;;;;;0.40;0.40;;;;;;;12.74;100.00;98446.47;5007050;28;20202;-62
2023/04/01 11:30:09;;;;;;;0.43;0.43;;;;;;;12.95;100.00;98450.63;4981757;28;20236;-63
2023/04/01 11:32:57;;;;;;;0.57;0.57;;;;;;;12.91;100.00;98447.50;4977231;28;20274;-60
2023/04/01 11:35:49;;;;;;;0.73;0.67;;;;;;;13.31;100.00;98443.03;4993497;28;20655;-62
2023/04/01 11:38:50;;;;;;;0.80;0.73;;;;;;;13.53;100.00;98447.88;4992867;28;20188;-62
2023/04/01 11:41:30;;;;;;;1.80;0.60;;;;;;;13.67;100.00;98453.53;5024217;28;20232;-62
2023/04/01 11:44:20;;;;;;;0.50;0.50;;;;;;;13.53;100.00;98457.38;5036666;28;20186;-62
2023/04/01 11:47:10;;;;;;;1.40;0.70;;;;;;;13.65;100.00;98458.03;5045359;28;20186;-61
2023/04/01 11:49:53;;;;;;;0.40;0.40;;;;;;;13.55;100.00;98458.84;5030772;28;20213;-61
2023/04/01 11:52:53;;;;;;;1.27;0.87;;;;;;;13.39;100.00;98463.84;5035207;28;20275;-62
2023/04/01 11:55:40;;;;;;;1.60;0.30;;;;;;;13.00;100.00;98466.50;5046149;28;20250;-63
2023/04/01 11:58:33;;;;;;;0.50;0.50;;;;;;;12.80;100.00;98470.88;5030725;28;20243;-61
2023/04/01 12:01:11;;;;;;;0.67;0.67;;;;;;;12.89;100.00;98472.66;5027614;28;20233;-62
2023/04/01 12:03:44;;;;;;;1.23;0.60;;;;;;;12.95;100.00;98472.09;5038637;28;20217;-61
2023/04/01 12:06:48;;;;;;;1.30;0.67;;;;;;;12.67;100.00;98476.34;5048282;28;20277;-60
2023/04/01 12:09:30;;;;;;;1.07;0.80;;;;;;;12.55;100.00;98486.78;5031324;28;20241;-62
2023/04/01 12:12:20;;;;;;;0.70;0.70;;;;;;;12.46;100.00;98491.94;5040040;28;20228;-71